sensor_id;sensor_type;location;lat;lon;timestamp;P1;durP1;ratioP1;P2;durP2;ratioP2
56746;SDS011;42623;49.978;9.966;2024-03-08T00:00:19;16.90;;;11.18;;
56746;SDS011;42623;49.978;9.966;2024-03-08T00:00:29;16.42;;;11.55;;
56746;SDS011;42623;49.978;9.966;2024-03-08T00:00:42;16.00;;;11.35;;
56746;SDS011;42623;49.978;9.966;2024-03-08T00:00:52;16.33;;;11.30;;
56746;SDS011;42623;49.978;9.966;2024-03-08T00:01:03;16.77;;;11.87;;
56746;SDS011;42623;49.978;9.966;2024-03-08T00:01:13;16.25;;;11.95;;
56746;SDS011;42623;49.978;9.966;2024-03-08T00:01:23;18.77;;;11.93;;
56746;SDS011;42623;49.978;9.966;2024-03-08T00:01:33;18.67;;;11.47;;
56746;SDS011;42623;49.978;9.966;2024-03-08T00:01:43;18.67;;;11.40;;
56746;SDS011;42623;49.978;9.966;2024-03-08T00:01:55;15.25;;;10.88;;
56746;SDS011;42623;49.978;9.966;2024-03-08T00:02:05;18.13;;;11.60;;
56746;SDS011;42623;49.978;9.966;2024-03-08T00:02:15;18.37;;;11.50;;
56746;SDS011;42623;49.978;9.966;2024-03-08T00:02:25;19.20;;;11.77;;
56746;SDS011;42623;49.978;9.966;2024-03-08T00:02:36;18.50;;;11.50;;
56746;SDS011;42623;49.978;9.966;2024-03-08T00:02:47;21.00;;;12.32;;
56746;SDS011;42623;49.978;9.966;2024-03-08T00:02:57;21.45;;;12.25;;
56746;SDS011;42623;49.978;9.966;2024-03-08T00:03:08;22.88;;;13.15;;
56746;SDS011;42623;49.978;9.966;2024-03-08T00:03:20;21.00;;;12.65;;
56746;SDS011;42623;49.978;9.966;2024-03-08T00:03:30;19.88;;;12.02;;
56746;SDS011;42623;49.978;9.966;2024-03-08T00:03:41;18.10;;;11.70;;
56746;SDS011;42623;49.978;9.966;2024-03-08T00:03:51;18.90;;;11.98;;
56746;SDS011;42623;49.978;9.966;2024-03-08T00:04:02;17.40;;;11.98;;
56746;SDS011;42623;49.978;9.966;2024-03-08T00:04:12;17.03;;;11.13;;
56746;SDS011;42623;49.978;9.966;2024-03-08T00:04:23;17.17;;;11.55;;
56746;SDS011;42623;49.978;9.966;2024-03-08T00:04:33;17.13;;;12.17;;
56746;SDS011;42623;49.978;9.966;2024-03-08T00:04:44;17.50;;;12.63;;
56746;SDS011;42623;49.978;9.966;2024-03-08T00:04:54;17.35;;;12.05;;
56746;SDS011;42623;49.978;9.966;2024-03-08T00:05:05;17.37;;;11.37;;
56746;SDS011;42623;49.978;9.966;2024-03-08T00:05:15;18.00;;;12.07;;
56746;SDS011;42623;49.978;9.966;2024-03-08T00:05:26;19.10;;;12.63;;
56746;SDS011;42623;49.978;9.966;2024-03-08T00:05:36;19.47;;;12.63;;
56746;SDS011;42623;49.978;9.966;2024-03-08T00:05:48;19.13;;;12.10;;
56746;SDS011;42623;49.978;9.966;2024-03-08T00:05:58;18.80;;;11.60;;
56746;SDS011;42623;49.978;9.966;2024-03-08T00:06:09;18.52;;;11.35;;
56746;SDS011;42623;49.978;9.966;2024-03-08T00:06:19;19.13;;;12.63;;
56746;SDS011;42623;49.978;9.966;2024-03-08T00:06:29;19.97;;;13.30;;
56746;SDS011;42623;49.978;9.966;2024-03-08T00:06:39;20.43;;;13.97;;
56746;SDS011;42623;49.978;9.966;2024-03-08T00:06:49;18.20;;;12.60;;
56746;SDS011;42623;49.978;9.966;2024-03-08T00:07:00;17.10;;;12.35;;
56746;SDS011;42623;49.978;9.966;2024-03-08T00:07:11;16.40;;;11.88;;
56746;SDS011;42623;49.978;9.966;2024-03-08T00:07:21;16.80;;;11.43;;
56746;SDS011;42623;49.978;9.966;2024-03-08T00:07:31;16.43;;;11.17;;
56746;SDS011;42623;49.978;9.966;2024-03-08T00:07:41;16.77;;;11.63;;
56746;SDS011;42623;49.978;9.966;2024-03-08T00:07:52;15.70;;;11.55;;
56746;SDS011;42623;49.978;9.966;2024-03-08T00:08:03;16.08;;;11.68;;
56746;SDS011;42623;49.978;9.966;2024-03-08T00:08:13;16.10;;;11.37;;
56746;SDS011;42623;49.978;9.966;2024-03-08T00:08:23;18.17;;;11.95;;
56746;SDS011;42623;49.978;9.966;2024-03-08T00:08:33;18.70;;;12.40;;
56746;SDS011;42623;49.978;9.966;2024-03-08T00:08:43;18.80;;;12.47;;
56746;SDS011;42623;49.978;9.966;2024-03-08T00:08:53;17.93;;;12.23;;
56746;SDS011;42623;49.978;9.966;2024-03-08T00:09:04;18.03;;;11.87;;
56746;SDS011;42623;49.978;9.966;2024-03-08T00:09:14;18.10;;;12.13;;
56746;SDS011;42623;49.978;9.966;2024-03-08T00:09:24;18.85;;;12.55;;
56746;SDS011;42623;49.978;9.966;2024-03-08T00:09:34;19.47;;;13.23;;
56746;SDS011;42623;49.978;9.966;2024-03-08T00:09:44;18.23;;;12.93;;
56746;SDS011;42623;49.978;9.966;2024-03-08T00:09:55;16.90;;;12.32;;
56746;SDS011;42623;49.978;9.966;2024-03-08T00:10:08;16.43;;;12.73;;
56746;SDS011;42623;49.978;9.966;2024-03-08T00:10:21;16.98;;;13.13;;
56746;SDS011;42623;49.978;9.966;2024-03-08T00:10:31;18.58;;;13.23;;
56746;SDS011;42623;49.978;9.966;2024-03-08T00:10:42;21.73;;;15.40;;
56746;SDS011;42623;49.978;9.966;2024-03-08T00:10:52;24.30;;;17.47;;
56746;SDS011;42623;49.978;9.966;2024-03-08T00:11:02;24.40;;;17.57;;
56746;SDS011;42623;49.978;9.966;2024-03-08T00:11:12;21.83;;;15.27;;
56746;SDS011;42623;49.978;9.966;2024-03-08T00:11:22;18.60;;;12.47;;
56746;SDS011;42623;49.978;9.966;2024-03-08T00:11:35;17.30;;;11.35;;
56746;SDS011;42623;49.978;9.966;2024-03-08T00:11:45;18.33;;;11.57;;
56746;SDS011;42623;49.978;9.966;2024-03-08T00:11:56;18.88;;;11.75;;
56746;SDS011;42623;49.978;9.966;2024-03-08T00:12:06;18.10;;;10.90;;
56746;SDS011;42623;49.978;9.966;2024-03-08T00:12:16;16.00;;;9.83;;
56746;SDS011;42623;49.978;9.966;2024-03-08T00:12:27;15.77;;;10.20;;
56746;SDS011;42623;49.978;9.966;2024-03-08T00:12:40;17.27;;;10.87;;
56746;SDS011;42623;49.978;9.966;2024-03-08T00:12:53;16.02;;;10.93;;
56746;SDS011;42623;49.978;9.966;2024-03-08T00:13:04;16.13;;;11.43;;
56746;SDS011;42623;49.978;9.966;2024-03-08T00:13:14;18.07;;;13.00;;
56746;SDS011;42623;49.978;9.966;2024-03-08T00:13:24;19.02;;;13.18;;
56746;SDS011;42623;49.978;9.966;2024-03-08T00:13:35;18.50;;;12.77;;
56746;SDS011;42623;49.978;9.966;2024-03-08T00:13:45;17.47;;;11.17;;
56746;SDS011;42623;49.978;9.966;2024-03-08T00:13:56;17.95;;;10.45;;
56746;SDS011;42623;49.978;9.966;2024-03-08T00:14:06;17.63;;;9.93;;
56746;SDS011;42623;49.978;9.966;2024-03-08T00:14:17;16.38;;;10.10;;
56746;SDS011;42623;49.978;9.966;2024-03-08T00:14:27;15.70;;;10.30;;
56746;SDS011;42623;49.978;9.966;2024-03-08T00:14:37;16.47;;;10.67;;
56746;SDS011;42623;49.978;9.966;2024-03-08T00:14:48;17.97;;;10.97;;
56746;SDS011;42623;49.978;9.966;2024-03-08T00:14:58;18.58;;;12.40;;
56746;SDS011;42623;49.978;9.966;2024-03-08T00:15:09;19.00;;;12.13;;
56746;SDS011;42623;49.978;9.966;2024-03-08T00:15:20;17.80;;;11.65;;
56746;SDS011;42623;49.978;9.966;2024-03-08T00:15:32;17.77;;;11.10;;
56746;SDS011;42623;49.978;9.966;2024-03-08T00:15:43;19.15;;;12.60;;
56746;SDS011;42623;49.978;9.966;2024-03-08T00:15:53;19.17;;;13.10;;
56746;SDS011;42623;49.978;9.966;2024-03-08T00:16:03;18.80;;;13.33;;
56746;SDS011;42623;49.978;9.966;2024-03-08T00:16:13;16.70;;;11.43;;
56746;SDS011;42623;49.978;9.966;2024-03-08T00:16:23;18.10;;;12.10;;
56746;SDS011;42623;49.978;9.966;2024-03-08T00:16:34;17.63;;;12.13;;
56746;SDS011;42623;49.978;9.966;2024-03-08T00:16:45;17.88;;;12.73;;
56746;SDS011;42623;49.978;9.966;2024-03-08T00:16:55;21.10;;;15.80;;
56746;SDS011;42623;49.978;9.966;2024-03-08T00:17:05;22.70;;;16.63;;
56746;SDS011;42623;49.978;9.966;2024-03-08T00:17:15;23.60;;;17.33;;
56746;SDS011;42623;49.978;9.966;2024-03-08T00:17:25;19.00;;;13.43;;
56746;SDS011;42623;49.978;9.966;2024-03-08T00:17:37;17.85;;;13.43;;
56746;SDS011;42623;49.978;9.966;2024-03-08T00:17:48;16.90;;;12.55;;
56746;SDS011;42623;49.978;9.966;2024-03-08T00:17:58;18.00;;;12.38;;
56746;SDS011;42623;49.978;9.966;2024-03-08T00:18:08;16.77;;;11.47;;
56746;SDS011;42623;49.978;9.966;2024-03-08T00:18:18;16.13;;;10.77;;
56746;SDS011;42623;49.978;9.966;2024-03-08T00:18:29;16.00;;;10.80;;
56746;SDS011;42623;49.978;9.966;2024-03-08T00:18:39;16.63;;;11.17;;
56746;SDS011;42623;49.978;9.966;2024-03-08T00:18:49;16.67;;;11.67;;
56746;SDS011;42623;49.978;9.966;2024-03-08T00:18:59;16.17;;;11.45;;
56746;SDS011;42623;49.978;9.966;2024-03-08T00:19:10;17.33;;;10.97;;
56746;SDS011;42623;49.978;9.966;2024-03-08T00:19:20;18.57;;;11.07;;
56746;SDS011;42623;49.978;9.966;2024-03-08T00:19:30;20.43;;;12.20;;
56746;SDS011;42623;49.978;9.966;2024-03-08T00:19:40;19.30;;;12.57;;
56746;SDS011;42623;49.978;9.966;2024-03-08T00:19:51;19.13;;;12.10;;
56746;SDS011;42623;49.978;9.966;2024-03-08T00:20:02;16.85;;;10.77;;
56746;SDS011;42623;49.978;9.966;2024-03-08T00:20:16;17.40;;;11.73;;
56746;SDS011;42623;49.978;9.966;2024-03-08T00:20:29;17.40;;;11.55;;
56746;SDS011;42623;49.978;9.966;2024-03-08T00:20:40;15.93;;;10.67;;
56746;SDS011;42623;49.978;9.966;2024-03-08T00:20:50;14.20;;;9.60;;
56746;SDS011;42623;49.978;9.966;2024-03-08T00:21:00;14.17;;;10.00;;
56746;SDS011;42623;49.978;9.966;2024-03-08T00:21:11;15.23;;;10.53;;
56746;SDS011;42623;49.978;9.966;2024-03-08T00:21:22;16.55;;;10.45;;
56746;SDS011;42623;49.978;9.966;2024-03-08T00:21:32;16.67;;;9.93;;
56746;SDS011;42623;49.978;9.966;2024-03-08T00:21:42;15.67;;;9.30;;
56746;SDS011;42623;49.978;9.966;2024-03-08T00:21:52;17.43;;;9.87;;
56746;SDS011;42623;49.978;9.966;2024-03-08T00:22:02;19.40;;;10.47;;
56746;SDS011;42623;49.978;9.966;2024-03-08T00:22:12;19.27;;;11.00;;
56746;SDS011;42623;49.978;9.966;2024-03-08T00:22:22;17.63;;;9.47;;
56746;SDS011;42623;49.978;9.966;2024-03-08T00:22:32;17.03;;;9.23;;
56746;SDS011;42623;49.978;9.966;2024-03-08T00:22:43;16.83;;;8.80;;
56746;SDS011;42623;49.978;9.966;2024-03-08T00:22:53;16.02;;;9.70;;
56746;SDS011;42623;49.978;9.966;2024-03-08T00:23:03;14.67;;;9.07;;
56746;SDS011;42623;49.978;9.966;2024-03-08T00:23:13;16.13;;;10.07;;
56746;SDS011;42623;49.978;9.966;2024-03-08T00:23:25;15.60;;;10.98;;
56746;SDS011;42623;49.978;9.966;2024-03-08T00:23:36;17.33;;;11.57;;
56746;SDS011;42623;49.978;9.966;2024-03-08T00:23:46;18.50;;;12.00;;
56746;SDS011;42623;49.978;9.966;2024-03-08T00:23:57;19.97;;;11.97;;
56746;SDS011;42623;49.978;9.966;2024-03-08T00:24:07;19.17;;;11.93;;
56746;SDS011;42623;49.978;9.966;2024-03-08T00:24:17;18.43;;;11.53;;
56746;SDS011;42623;49.978;9.966;2024-03-08T00:24:27;18.53;;;11.70;;
56746;SDS011;42623;49.978;9.966;2024-03-08T00:24:38;18.38;;;11.22;;
56746;SDS011;42623;49.978;9.966;2024-03-08T00:24:49;18.13;;;11.07;;
56746;SDS011;42623;49.978;9.966;2024-03-08T00:25:05;18.38;;;10.95;;
56746;SDS011;42623;49.978;9.966;2024-03-08T00:25:16;18.55;;;11.02;;
56746;SDS011;42623;49.978;9.966;2024-03-08T00:25:27;18.03;;;10.40;;
56746;SDS011;42623;49.978;9.966;2024-03-08T00:25:37;18.40;;;10.85;;
56746;SDS011;42623;49.978;9.966;2024-03-08T00:25:48;16.52;;;10.60;;
56746;SDS011;42623;49.978;9.966;2024-03-08T00:25:59;15.87;;;11.40;;
56746;SDS011;42623;49.978;9.966;2024-03-08T00:26:09;16.40;;;11.27;;
56746;SDS011;42623;49.978;9.966;2024-03-08T00:26:19;17.42;;;10.82;;
56746;SDS011;42623;49.978;9.966;2024-03-08T00:26:29;17.97;;;10.73;;
56746;SDS011;42623;49.978;9.966;2024-03-08T00:26:40;16.50;;;10.47;;
56746;SDS011;42623;49.978;9.966;2024-03-08T00:26:51;15.50;;;11.15;;
56746;SDS011;42623;49.978;9.966;2024-03-08T00:27:03;15.35;;;10.80;;
56746;SDS011;42623;49.978;9.966;2024-03-08T00:27:14;15.40;;;10.73;;
56746;SDS011;42623;49.978;9.966;2024-03-08T00:27:25;16.83;;;11.18;;
56746;SDS011;42623;49.978;9.966;2024-03-08T00:27:36;17.38;;;11.27;;
56746;SDS011;42623;49.978;9.966;2024-03-08T00:27:46;17.87;;;11.13;;
56746;SDS011;42623;49.978;9.966;2024-03-08T00:27:59;17.10;;;10.38;;
56746;SDS011;42623;49.978;9.966;2024-03-08T00:28:10;16.88;;;10.20;;
56746;SDS011;42623;49.978;9.966;2024-03-08T00:28:23;16.88;;;10.60;;
56746;SDS011;42623;49.978;9.966;2024-03-08T00:28:35;16.33;;;10.57;;
56746;SDS011;42623;49.978;9.966;2024-03-08T00:28:45;15.80;;;10.83;;
56746;SDS011;42623;49.978;9.966;2024-03-08T00:28:55;15.33;;;10.23;;
56746;SDS011;42623;49.978;9.966;2024-03-08T00:29:05;15.20;;;10.30;;
56746;SDS011;42623;49.978;9.966;2024-03-08T00:29:17;16.75;;;9.88;;
56746;SDS011;42623;49.978;9.966;2024-03-08T00:29:27;16.63;;;10.23;;
56746;SDS011;42623;49.978;9.966;2024-03-08T00:29:38;17.37;;;10.23;;
56746;SDS011;42623;49.978;9.966;2024-03-08T00:29:51;18.55;;;11.23;;
56746;SDS011;42623;49.978;9.966;2024-03-08T00:30:01;19.57;;;12.00;;
56746;SDS011;42623;49.978;9.966;2024-03-08T00:30:11;16.70;;;10.93;;
56746;SDS011;42623;49.978;9.966;2024-03-08T00:30:24;16.20;;;10.85;;
56746;SDS011;42623;49.978;9.966;2024-03-08T00:30:35;16.33;;;10.50;;
56746;SDS011;42623;49.978;9.966;2024-03-08T00:30:45;17.83;;;10.67;;
56746;SDS011;42623;49.978;9.966;2024-03-08T00:30:56;17.92;;;10.82;;
56746;SDS011;42623;49.978;9.966;2024-03-08T00:31:06;17.90;;;11.07;;
56746;SDS011;42623;49.978;9.966;2024-03-08T00:31:16;16.23;;;10.47;;
56746;SDS011;42623;49.978;9.966;2024-03-08T00:31:27;16.43;;;10.43;;
56746;SDS011;42623;49.978;9.966;2024-03-08T00:31:38;15.98;;;9.68;;
56746;SDS011;42623;49.978;9.966;2024-03-08T00:31:48;16.73;;;10.20;;
56746;SDS011;42623;49.978;9.966;2024-03-08T00:31:58;16.30;;;10.30;;
56746;SDS011;42623;49.978;9.966;2024-03-08T00:32:08;14.73;;;10.10;;
56746;SDS011;42623;49.978;9.966;2024-03-08T00:32:19;14.17;;;9.80;;
56746;SDS011;42623;49.978;9.966;2024-03-08T00:32:29;15.85;;;9.32;;
56746;SDS011;42623;49.978;9.966;2024-03-08T00:32:39;17.47;;;9.77;;
56746;SDS011;42623;49.978;9.966;2024-03-08T00:32:49;17.67;;;10.10;;
56746;SDS011;42623;49.978;9.966;2024-03-08T00:32:59;17.07;;;11.43;;
56746;SDS011;42623;49.978;9.966;2024-03-08T00:33:09;18.60;;;11.63;;
56746;SDS011;42623;49.978;9.966;2024-03-08T00:33:19;18.15;;;11.65;;
56746;SDS011;42623;49.978;9.966;2024-03-08T00:33:30;18.00;;;11.00;;
56746;SDS011;42623;49.978;9.966;2024-03-08T00:33:40;19.80;;;12.43;;
56746;SDS011;42623;49.978;9.966;2024-03-08T00:33:50;19.67;;;12.53;;
56746;SDS011;42623;49.978;9.966;2024-03-08T00:34:01;19.50;;;11.68;;
56746;SDS011;42623;49.978;9.966;2024-03-08T00:34:11;16.00;;;10.13;;
56746;SDS011;42623;49.978;9.966;2024-03-08T00:34:21;17.23;;;9.77;;
56746;SDS011;42623;49.978;9.966;2024-03-08T00:34:32;16.15;;;10.20;;
56746;SDS011;42623;49.978;9.966;2024-03-08T00:34:42;16.87;;;10.50;;
56746;SDS011;42623;49.978;9.966;2024-03-08T00:34:55;16.77;;;10.63;;
56746;SDS011;42623;49.978;9.966;2024-03-08T00:35:06;20.50;;;10.63;;
56746;SDS011;42623;49.978;9.966;2024-03-08T00:35:19;19.77;;;10.30;;
56746;SDS011;42623;49.978;9.966;2024-03-08T00:35:29;17.10;;;9.97;;
56746;SDS011;42623;49.978;9.966;2024-03-08T00:35:40;15.25;;;9.52;;
56746;SDS011;42623;49.978;9.966;2024-03-08T00:35:50;15.67;;;9.13;;
56746;SDS011;42623;49.978;9.966;2024-03-08T00:36:00;15.87;;;9.07;;
56746;SDS011;42623;49.978;9.966;2024-03-08T00:36:10;15.47;;;9.00;;
56746;SDS011;42623;49.978;9.966;2024-03-08T00:36:20;15.93;;;9.87;;
56746;SDS011;42623;49.978;9.966;2024-03-08T00:36:30;16.97;;;10.23;;
56746;SDS011;42623;49.978;9.966;2024-03-08T00:36:41;18.77;;;11.67;;
56746;SDS011;42623;49.978;9.966;2024-03-08T00:36:51;18.13;;;11.20;;
56746;SDS011;42623;49.978;9.966;2024-03-08T00:37:02;18.38;;;11.48;;
56746;SDS011;42623;49.978;9.966;2024-03-08T00:37:13;17.92;;;10.15;;
56746;SDS011;42623;49.978;9.966;2024-03-08T00:37:23;18.33;;;10.60;;
56746;SDS011;42623;49.978;9.966;2024-03-08T00:37:34;16.00;;;10.18;;
56746;SDS011;42623;49.978;9.966;2024-03-08T00:37:45;18.00;;;11.30;;
56746;SDS011;42623;49.978;9.966;2024-03-08T00:37:57;18.15;;;11.20;;
56746;SDS011;42623;49.978;9.966;2024-03-08T00:38:07;17.77;;;10.67;;
56746;SDS011;42623;49.978;9.966;2024-03-08T00:38:18;17.75;;;11.45;;
56746;SDS011;42623;49.978;9.966;2024-03-08T00:38:28;17.47;;;11.40;;
56746;SDS011;42623;49.978;9.966;2024-03-08T00:38:39;17.52;;;12.10;;
56746;SDS011;42623;49.978;9.966;2024-03-08T00:38:49;17.60;;;11.57;;
56746;SDS011;42623;49.978;9.966;2024-03-08T00:38:59;18.10;;;11.70;;
56746;SDS011;42623;49.978;9.966;2024-03-08T00:39:10;17.35;;;10.75;;
56746;SDS011;42623;49.978;9.966;2024-03-08T00:39:22;16.95;;;10.00;;
56746;SDS011;42623;49.978;9.966;2024-03-08T00:39:32;19.00;;;10.40;;
56746;SDS011;42623;49.978;9.966;2024-03-08T00:39:43;20.40;;;11.80;;
56746;SDS011;42623;49.978;9.966;2024-03-08T00:39:53;19.90;;;12.07;;
56746;SDS011;42623;49.978;9.966;2024-03-08T00:40:04;17.67;;;11.25;;
56746;SDS011;42623;49.978;9.966;2024-03-08T00:40:14;19.02;;;10.93;;
56746;SDS011;42623;49.978;9.966;2024-03-08T00:40:24;19.23;;;11.40;;
56746;SDS011;42623;49.978;9.966;2024-03-08T00:40:35;20.23;;;12.03;;
56746;SDS011;42623;49.978;9.966;2024-03-08T00:40:45;19.27;;;11.93;;
56746;SDS011;42623;49.978;9.966;2024-03-08T00:40:55;19.15;;;11.20;;
56746;SDS011;42623;49.978;9.966;2024-03-08T00:41:06;18.75;;;11.13;;
56746;SDS011;42623;49.978;9.966;2024-03-08T00:41:17;16.60;;;10.63;;
56746;SDS011;42623;49.978;9.966;2024-03-08T00:41:28;16.98;;;11.07;;
56746;SDS011;42623;49.978;9.966;2024-03-08T00:41:38;16.40;;;10.37;;
56746;SDS011;42623;49.978;9.966;2024-03-08T00:41:48;16.90;;;10.80;;
56746;SDS011;42623;49.978;9.966;2024-03-08T00:41:58;17.25;;;11.13;;
56746;SDS011;42623;49.978;9.966;2024-03-08T00:42:09;18.13;;;11.57;;
56746;SDS011;42623;49.978;9.966;2024-03-08T00:42:19;19.13;;;10.93;;
56746;SDS011;42623;49.978;9.966;2024-03-08T00:42:30;19.13;;;11.07;;
56746;SDS011;42623;49.978;9.966;2024-03-08T00:42:40;19.03;;;11.63;;
56746;SDS011;42623;49.978;9.966;2024-03-08T00:42:51;17.95;;;12.30;;
56746;SDS011;42623;49.978;9.966;2024-03-08T00:43:03;17.63;;;12.00;;
56746;SDS011;42623;49.978;9.966;2024-03-08T00:43:14;17.30;;;11.48;;
56746;SDS011;42623;49.978;9.966;2024-03-08T00:43:25;17.60;;;11.85;;
56746;SDS011;42623;49.978;9.966;2024-03-08T00:43:35;17.00;;;11.27;;
56746;SDS011;42623;49.978;9.966;2024-03-08T00:43:46;16.63;;;10.53;;
56746;SDS011;42623;49.978;9.966;2024-03-08T00:43:57;15.90;;;10.02;;
56746;SDS011;42623;49.978;9.966;2024-03-08T00:44:07;15.17;;;10.07;;
56746;SDS011;42623;49.978;9.966;2024-03-08T00:44:17;14.50;;;10.37;;
56746;SDS011;42623;49.978;9.966;2024-03-08T00:44:28;15.93;;;10.50;;
56746;SDS011;42623;49.978;9.966;2024-03-08T00:44:38;15.07;;;9.80;;
56746;SDS011;42623;49.978;9.966;2024-03-08T00:44:48;14.03;;;9.17;;
56746;SDS011;42623;49.978;9.966;2024-03-08T00:45:01;15.30;;;10.15;;
56746;SDS011;42623;49.978;9.966;2024-03-08T00:45:11;17.37;;;10.97;;
56746;SDS011;42623;49.978;9.966;2024-03-08T00:45:21;19.03;;;12.00;;
56746;SDS011;42623;49.978;9.966;2024-03-08T00:45:33;18.23;;;11.05;;
56746;SDS011;42623;49.978;9.966;2024-03-08T00:45:43;17.58;;;11.38;;
56746;SDS011;42623;49.978;9.966;2024-03-08T00:45:53;16.00;;;11.10;;
56746;SDS011;42623;49.978;9.966;2024-03-08T00:46:03;16.60;;;11.13;;
56746;SDS011;42623;49.978;9.966;2024-03-08T00:46:14;14.60;;;10.03;;
56746;SDS011;42623;49.978;9.966;2024-03-08T00:46:25;15.57;;;9.52;;
56746;SDS011;42623;49.978;9.966;2024-03-08T00:46:35;17.02;;;10.15;;
56746;SDS011;42623;49.978;9.966;2024-03-08T00:46:45;16.87;;;10.20;;
56746;SDS011;42623;49.978;9.966;2024-03-08T00:46:55;17.73;;;10.93;;
56746;SDS011;42623;49.978;9.966;2024-03-08T00:47:06;18.15;;;11.27;;
56746;SDS011;42623;49.978;9.966;2024-03-08T00:47:16;19.73;;;11.63;;
56746;SDS011;42623;49.978;9.966;2024-03-08T00:47:27;19.83;;;11.73;;
56746;SDS011;42623;49.978;9.966;2024-03-08T00:47:37;20.77;;;12.73;;
56746;SDS011;42623;49.978;9.966;2024-03-08T00:47:47;21.13;;;13.00;;
56746;SDS011;42623;49.978;9.966;2024-03-08T00:47:57;18.07;;;11.80;;
56746;SDS011;42623;49.978;9.966;2024-03-08T00:48:07;15.63;;;10.23;;
56746;SDS011;42623;49.978;9.966;2024-03-08T00:48:18;14.63;;;10.20;;
56746;SDS011;42623;49.978;9.966;2024-03-08T00:48:28;15.97;;;10.47;;
56746;SDS011;42623;49.978;9.966;2024-03-08T00:48:38;16.27;;;10.33;;
56746;SDS011;42623;49.978;9.966;2024-03-08T00:48:48;15.75;;;10.10;;
56746;SDS011;42623;49.978;9.966;2024-03-08T00:48:58;15.80;;;10.60;;
56746;SDS011;42623;49.978;9.966;2024-03-08T00:49:08;16.97;;;11.53;;
56746;SDS011;42623;49.978;9.966;2024-03-08T00:49:19;17.85;;;12.02;;
56746;SDS011;42623;49.978;9.966;2024-03-08T00:49:29;18.17;;;11.70;;
56746;SDS011;42623;49.978;9.966;2024-03-08T00:49:41;17.77;;;11.35;;
56746;SDS011;42623;49.978;9.966;2024-03-08T00:49:51;19.27;;;11.70;;
56746;SDS011;42623;49.978;9.966;2024-03-08T00:50:01;18.13;;;11.47;;
56746;SDS011;42623;49.978;9.966;2024-03-08T00:50:13;17.83;;;11.35;;
56746;SDS011;42623;49.978;9.966;2024-03-08T00:50:24;17.50;;;10.38;;
56746;SDS011;42623;49.978;9.966;2024-03-08T00:50:34;18.40;;;10.17;;
56746;SDS011;42623;49.978;9.966;2024-03-08T00:50:44;21.00;;;10.97;;
56746;SDS011;42623;49.978;9.966;2024-03-08T00:50:58;20.63;;;11.13;;
56746;SDS011;42623;49.978;9.966;2024-03-08T00:51:08;17.47;;;10.53;;
56746;SDS011;42623;49.978;9.966;2024-03-08T00:51:18;15.57;;;9.70;;
56746;SDS011;42623;49.978;9.966;2024-03-08T00:51:28;16.07;;;10.00;;
56746;SDS011;42623;49.978;9.966;2024-03-08T00:51:39;16.50;;;10.70;;
56746;SDS011;42623;49.978;9.966;2024-03-08T00:51:49;16.97;;;11.40;;
56746;SDS011;42623;49.978;9.966;2024-03-08T00:51:59;16.17;;;11.70;;
56746;SDS011;42623;49.978;9.966;2024-03-08T00:52:09;16.37;;;12.17;;
56746;SDS011;42623;49.978;9.966;2024-03-08T00:52:20;17.17;;;12.32;;
56746;SDS011;42623;49.978;9.966;2024-03-08T00:52:31;17.40;;;12.03;;
56746;SDS011;42623;49.978;9.966;2024-03-08T00:52:41;19.60;;;11.32;;
56746;SDS011;42623;49.978;9.966;2024-03-08T00:52:51;19.07;;;11.03;;
56746;SDS011;42623;49.978;9.966;2024-03-08T00:53:01;19.83;;;11.70;;
56746;SDS011;42623;49.978;9.966;2024-03-08T00:53:11;17.63;;;12.37;;
56746;SDS011;42623;49.978;9.966;2024-03-08T00:53:22;20.63;;;13.38;;
56746;SDS011;42623;49.978;9.966;2024-03-08T00:53:32;21.93;;;13.57;;
56746;SDS011;42623;49.978;9.966;2024-03-08T00:53:42;23.03;;;13.90;;
56746;SDS011;42623;49.978;9.966;2024-03-08T00:53:53;19.88;;;13.07;;
56746;SDS011;42623;49.978;9.966;2024-03-08T00:54:03;17.50;;;11.77;;
56746;SDS011;42623;49.978;9.966;2024-03-08T00:54:13;15.77;;;10.67;;
56746;SDS011;42623;49.978;9.966;2024-03-08T00:54:23;17.93;;;10.83;;
56746;SDS011;42623;49.978;9.966;2024-03-08T00:54:34;18.20;;;10.73;;
56746;SDS011;42623;49.978;9.966;2024-03-08T00:54:44;18.65;;;11.38;;
56746;SDS011;42623;49.978;9.966;2024-03-08T00:54:54;17.03;;;11.50;;
56746;SDS011;42623;49.978;9.966;2024-03-08T00:55:05;17.83;;;12.23;;
56746;SDS011;42623;49.978;9.966;2024-03-08T00:55:15;18.73;;;12.27;;
56746;SDS011;42623;49.978;9.966;2024-03-08T00:55:25;18.73;;;12.43;;
56746;SDS011;42623;49.978;9.966;2024-03-08T00:55:36;18.20;;;12.40;;
56746;SDS011;42623;49.978;9.966;2024-03-08T00:55:46;16.27;;;11.23;;
56746;SDS011;42623;49.978;9.966;2024-03-08T00:55:56;16.87;;;11.50;;
56746;SDS011;42623;49.978;9.966;2024-03-08T00:56:07;16.70;;;12.17;;
56746;SDS011;42623;49.978;9.966;2024-03-08T00:56:20;20.10;;;13.65;;
56746;SDS011;42623;49.978;9.966;2024-03-08T00:56:30;21.77;;;14.27;;
56746;SDS011;42623;49.978;9.966;2024-03-08T00:56:40;21.42;;;14.02;;
56746;SDS011;42623;49.978;9.966;2024-03-08T00:56:50;19.60;;;14.17;;
56746;SDS011;42623;49.978;9.966;2024-03-08T00:57:01;18.83;;;14.60;;
56746;SDS011;42623;49.978;9.966;2024-03-08T00:57:12;19.58;;;13.93;;
56746;SDS011;42623;49.978;9.966;2024-03-08T00:57:22;22.37;;;15.27;;
56746;SDS011;42623;49.978;9.966;2024-03-08T00:57:33;26.47;;;17.93;;
56746;SDS011;42623;49.978;9.966;2024-03-08T00:57:43;27.90;;;20.90;;
56746;SDS011;42623;49.978;9.966;2024-03-08T00:57:53;25.77;;;18.90;;
56746;SDS011;42623;49.978;9.966;2024-03-08T00:58:04;22.53;;;15.30;;
56746;SDS011;42623;49.978;9.966;2024-03-08T00:58:14;19.85;;;11.57;;
56746;SDS011;42623;49.978;9.966;2024-03-08T00:58:25;19.57;;;11.60;;
56746;SDS011;42623;49.978;9.966;2024-03-08T00:58:38;19.10;;;12.23;;
56746;SDS011;42623;49.978;9.966;2024-03-08T00:58:48;17.75;;;11.82;;
56746;SDS011;42623;49.978;9.966;2024-03-08T00:58:58;17.27;;;12.20;;
56746;SDS011;42623;49.978;9.966;2024-03-08T00:59:09;19.63;;;13.98;;
56746;SDS011;42623;49.978;9.966;2024-03-08T00:59:19;20.40;;;14.17;;
56746;SDS011;42623;49.978;9.966;2024-03-08T00:59:29;19.20;;;12.50;;
56746;SDS011;42623;49.978;9.966;2024-03-08T00:59:42;18.25;;;10.45;;
56746;SDS011;42623;49.978;9.966;2024-03-08T00:59:52;18.13;;;10.93;;
56746;SDS011;42623;49.978;9.966;2024-03-08T01:00:03;19.77;;;12.90;;
56746;SDS011;42623;49.978;9.966;2024-03-08T01:00:13;20.05;;;13.70;;
56746;SDS011;42623;49.978;9.966;2024-03-08T01:00:24;20.97;;;13.10;;
56746;SDS011;42623;49.978;9.966;2024-03-08T01:00:34;20.15;;;12.32;;
56746;SDS011;42623;49.978;9.966;2024-03-08T01:00:44;18.43;;;11.50;;
56746;SDS011;42623;49.978;9.966;2024-03-08T01:00:54;17.40;;;11.13;;
56746;SDS011;42623;49.978;9.966;2024-03-08T01:01:05;18.63;;;11.17;;
56746;SDS011;42623;49.978;9.966;2024-03-08T01:01:15;17.88;;;10.57;;
56746;SDS011;42623;49.978;9.966;2024-03-08T01:01:25;18.33;;;10.90;;
56746;SDS011;42623;49.978;9.966;2024-03-08T01:01:36;17.60;;;10.20;;
56746;SDS011;42623;49.978;9.966;2024-03-08T01:01:46;19.47;;;10.53;;
56746;SDS011;42623;49.978;9.966;2024-03-08T01:01:56;17.60;;;10.33;;
56746;SDS011;42623;49.978;9.966;2024-03-08T01:02:06;18.17;;;11.63;;
56746;SDS011;42623;49.978;9.966;2024-03-08T01:02:16;18.08;;;11.85;;